Impacts METAR Board
IDs:

KSAT - San Antonio Intl, TX, US

Updated at: 1300 UTC 14 Dec 2019
Potential Impact None Slight Moderate High
Time 14/01Z 14/02Z 14/03Z 14/04Z 14/05Z 14/06Z 14/07Z 14/08Z 14/09Z 14/10Z 14/11Z 14/12Z 14/13Z
Temp67 61 57 57 57 53 51 50 49 47 47 47 45
Dewpt40 42 42 41 41 40 40 40 39 39 38 38 37
Altim29.85 29.86 29.87 29.87 29.88 29.88 29.88 29.89 29.88 29.87 29.86 29.87 29.87
VIS10 10 10 10 10 10 10 10 10 10 10 10 10
CIG250 250 -- -- -- -- -- -- -- -- -- -- --
CoverBKNBKNSCTFEWFEWFEWFEWFEWFEWFEWFEWFEWFEW
FltCatVFRVFRVFRVFRVFRVFRVFRVFRVFRVFRVFRVFRVFR
WX--------------------------
WDir3103203103302300320300310290310300290
WSpd3 4 5 4 3 0 4 4 6 6 5 6 6
WGst-- -- -- -- -- -- -- -- -- -- -- -- --
Raw hourly METARs
KSAT 140051Z 31003KT 10SM BKN250 19/04 A2985 RMK AO2 SLP097 T01940044
KSAT 140151Z 32004KT 10SM BKN250 16/06 A2986 RMK AO2 SLP100 T01610056
KSAT 140251Z 31005KT 10SM SCT250 14/06 A2987 RMK AO2 SLP103 T01390056 53011
KSAT 140351Z 33004KT 10SM FEW250 14/05 A2987 RMK AO2 SLP104 T01390050
KSAT 140451Z 23003KT 10SM FEW250 14/05 A2988 RMK AO2 SLP106 T01390050
KSAT 140551Z 00000KT 10SM FEW250 12/04 A2988 RMK AO2 SLP106 T01170044 10233 20111 402780044 53004
KSAT 140651Z 32004KT 10SM FEW250 11/04 A2988 RMK AO2 SLP105 T01060044
KSAT 140751Z COR 30004KT 10SM FEW250 10/04 A2989 RMK AO2 SLP106 T01000044
KSAT 140851Z 31006KT 10SM FEW250 09/04 A2988 RMK AO2 SLP105 T00940039 58000
KSAT 140951Z 29006KT 10SM FEW250 08/04 A2987 RMK AO2 SLP101 T00830039
KSAT 141051Z 31005KT 10SM FEW250 08/03 A2986 RMK AO2 SLP099 T00830033
KSAT 141151Z 30006KT 10SM FEW250 08/03 A2987 RMK AO2 SLP102 T00830033 10122 20078 55004
KSAT 141251Z 29006KT 10SM FEW250 07/03 A2987 RMK AO2 SLP103 T00720028



Page loaded:  13:41 UTC  |   05:41 AM Pacific  |   06:41 AM Mountain  |   07:41 AM Central  |   08:41 AM Eastern

 

ADVISORIES

FORECASTS

FORECASTS

OBSERVATIONS

USER TOOLS

ABOUT US